sensor_id;sensor_type;location;lat;lon;timestamp;pressure;altitude;pressure_sealevel;temperature;humidity
80103;BME280;69865;47.648;19.030;2023-07-20T00:00:10;99756.19;;;20.85;75.30
80103;BME280;69865;47.648;19.030;2023-07-20T00:00:42;99756.59;;;20.88;75.20
80103;BME280;69865;47.648;19.030;2023-07-20T00:01:15;99758.16;;;21.02;73.92
80103;BME280;69865;47.648;19.030;2023-07-20T00:01:47;99752.38;;;21.05;73.93
80103;BME280;69865;47.648;19.030;2023-07-20T00:02:19;99758.13;;;21.09;73.56
80103;BME280;69865;47.648;19.030;2023-07-20T00:02:52;99758.56;;;21.13;73.51
80103;BME280;69865;47.648;19.030;2023-07-20T00:03:24;99752.75;;;21.16;73.31
80103;BME280;69865;47.648;19.030;2023-07-20T00:03:56;99758.28;;;21.21;73.43
80103;BME280;69865;47.648;19.030;2023-07-20T00:04:28;99756.44;;;21.21;73.30
80103;BME280;69865;47.648;19.030;2023-07-20T00:05:00;99750.00;;;21.29;73.07
80103;BME280;69865;47.648;19.030;2023-07-20T00:05:32;99747.31;;;21.29;72.56
80103;BME280;69865;47.648;19.030;2023-07-20T00:06:05;99753.50;;;21.29;72.71
80103;BME280;69865;47.648;19.030;2023-07-20T00:06:37;99751.22;;;21.26;72.78
80103;BME280;69865;47.648;19.030;2023-07-20T00:07:09;99748.56;;;21.26;72.70
80103;BME280;69865;47.648;19.030;2023-07-20T00:07:41;99752.06;;;21.27;72.90
80103;BME280;69865;47.648;19.030;2023-07-20T00:08:13;99752.31;;;21.19;73.55
80103;BME280;69865;47.648;19.030;2023-07-20T00:08:45;99753.19;;;21.13;73.60
80103;BME280;69865;47.648;19.030;2023-07-20T00:09:19;99748.00;;;21.11;73.86
80103;BME280;69865;47.648;19.030;2023-07-20T00:09:51;99752.53;;;21.10;73.39
80103;BME280;69865;47.648;19.030;2023-07-20T00:10:23;99752.97;;;21.14;74.00
80103;BME280;69865;47.648;19.030;2023-07-20T00:10:56;99750.91;;;21.09;73.66
80103;BME280;69865;47.648;19.030;2023-07-20T00:11:28;99746.41;;;21.03;74.30
80103;BME280;69865;47.648;19.030;2023-07-20T00:12:00;99746.22;;;20.98;74.42
80103;BME280;69865;47.648;19.030;2023-07-20T00:12:32;99742.75;;;20.91;74.89
80103;BME280;69865;47.648;19.030;2023-07-20T00:13:04;99750.84;;;20.85;75.30
80103;BME280;69865;47.648;19.030;2023-07-20T00:13:36;99747.16;;;20.79;75.76
80103;BME280;69865;47.648;19.030;2023-07-20T00:14:08;99744.72;;;20.78;75.66
80103;BME280;69865;47.648;19.030;2023-07-20T00:14:41;99743.06;;;20.77;75.61
80103;BME280;69865;47.648;19.030;2023-07-20T00:15:13;99743.66;;;20.79;75.85
80103;BME280;69865;47.648;19.030;2023-07-20T00:15:45;99743.06;;;20.77;76.26
80103;BME280;69865;47.648;19.030;2023-07-20T00:16:17;99750.47;;;20.75;76.03
80103;BME280;69865;47.648;19.030;2023-07-20T00:16:50;99745.78;;;20.70;76.10
80103;BME280;69865;47.648;19.030;2023-07-20T00:17:23;99749.25;;;20.71;76.53
80103;BME280;69865;47.648;19.030;2023-07-20T00:17:55;99752.09;;;20.76;76.12
80103;BME280;69865;47.648;19.030;2023-07-20T00:18:27;99747.81;;;20.68;76.28
80103;BME280;69865;47.648;19.030;2023-07-20T00:18:59;99750.94;;;20.65;76.59
80103;BME280;69865;47.648;19.030;2023-07-20T00:19:31;99753.81;;;20.63;76.46
80103;BME280;69865;47.648;19.030;2023-07-20T00:20:04;99748.88;;;20.60;76.76
80103;BME280;69865;47.648;19.030;2023-07-20T00:20:36;99746.00;;;20.62;76.55
80103;BME280;69865;47.648;19.030;2023-07-20T00:21:09;99748.25;;;20.58;77.26
80103;BME280;69865;47.648;19.030;2023-07-20T00:21:41;99742.50;;;20.55;78.07
80103;BME280;69865;47.648;19.030;2023-07-20T00:22:13;99738.84;;;20.49;78.04
80103;BME280;69865;47.648;19.030;2023-07-20T00:22:45;99737.41;;;20.47;77.85
80103;BME280;69865;47.648;19.030;2023-07-20T00:23:17;99739.25;;;20.46;77.88
80103;BME280;69865;47.648;19.030;2023-07-20T00:23:49;99737.81;;;20.44;77.73
80103;BME280;69865;47.648;19.030;2023-07-20T00:24:23;99739.69;;;20.43;77.73
80103;BME280;69865;47.648;19.030;2023-07-20T00:24:55;99734.38;;;20.30;78.49
80103;BME280;69865;47.648;19.030;2023-07-20T00:25:27;99734.38;;;20.30;79.12
80103;BME280;69865;47.648;19.030;2023-07-20T00:26:00;99737.44;;;20.27;78.88
80103;BME280;69865;47.648;19.030;2023-07-20T00:26:32;99730.47;;;20.26;78.69
80103;BME280;69865;47.648;19.030;2023-07-20T00:27:05;99728.38;;;20.28;78.62
80103;BME280;69865;47.648;19.030;2023-07-20T00:27:37;99727.78;;;20.26;78.35
80103;BME280;69865;47.648;19.030;2023-07-20T00:28:09;99730.47;;;20.26;78.42
80103;BME280;69865;47.648;19.030;2023-07-20T00:28:41;99732.91;;;20.28;78.42
80103;BME280;69865;47.648;19.030;2023-07-20T00:29:13;99731.06;;;20.28;78.28
80103;BME280;69865;47.648;19.030;2023-07-20T00:29:45;99729.41;;;20.27;78.23
80103;BME280;69865;47.648;19.030;2023-07-20T00:30:18;99730.66;;;20.25;78.53
80103;BME280;69865;47.648;19.030;2023-07-20T00:30:50;99732.50;;;20.24;78.59
80103;BME280;69865;47.648;19.030;2023-07-20T00:31:22;99725.34;;;20.18;78.52
80103;BME280;69865;47.648;19.030;2023-07-20T00:31:55;99726.13;;;20.18;78.69
80103;BME280;69865;47.648;19.030;2023-07-20T00:32:27;99729.84;;;20.17;79.16
80103;BME280;69865;47.648;19.030;2023-07-20T00:32:59;99727.59;;;20.14;78.95
80103;BME280;69865;47.648;19.030;2023-07-20T00:33:31;99732.53;;;20.11;79.19
80103;BME280;69865;47.648;19.030;2023-07-20T00:34:03;99733.16;;;20.06;79.58
80103;BME280;69865;47.648;19.030;2023-07-20T00:34:36;99732.97;;;20.01;79.73
80103;BME280;69865;47.648;19.030;2023-07-20T00:35:08;99728.06;;;19.98;79.68
80103;BME280;69865;47.648;19.030;2023-07-20T00:35:40;99727.22;;;19.98;79.91
80103;BME280;69865;47.648;19.030;2023-07-20T00:36:12;99725.56;;;19.97;79.80
80103;BME280;69865;47.648;19.030;2023-07-20T00:36:44;99723.09;;;19.95;80.11
80103;BME280;69865;47.648;19.030;2023-07-20T00:37:16;99722.72;;;19.98;79.02
80103;BME280;69865;47.648;19.030;2023-07-20T00:37:48;99721.66;;;19.99;79.09
80103;BME280;69865;47.648;19.030;2023-07-20T00:38:21;99728.03;;;20.05;78.49
80103;BME280;69865;47.648;19.030;2023-07-20T00:38:53;99722.69;;;20.05;78.90
80103;BME280;69865;47.648;19.030;2023-07-20T00:39:26;99723.94;;;20.02;79.42
80103;BME280;69865;47.648;19.030;2023-07-20T00:39:58;99728.47;;;20.02;79.17
80103;BME280;69865;47.648;19.030;2023-07-20T00:40:36;99725.38;;;20.05;78.84
80103;BME280;69865;47.648;19.030;2023-07-20T00:41:08;99715.25;;;20.07;78.79
80103;BME280;69865;47.648;19.030;2023-07-20T00:41:40;99721.03;;;20.04;79.33
80103;BME280;69865;47.648;19.030;2023-07-20T00:42:12;99709.53;;;20.03;79.16
80103;BME280;69865;47.648;19.030;2023-07-20T00:42:44;99724.34;;;20.06;79.08
80103;BME280;69865;47.648;19.030;2023-07-20T00:43:16;99714.44;;;20.06;79.14
80103;BME280;69865;47.648;19.030;2023-07-20T00:43:48;99723.28;;;20.07;78.87
80103;BME280;69865;47.648;19.030;2023-07-20T00:44:20;99720.41;;;20.08;78.76
80103;BME280;69865;47.648;19.030;2023-07-20T00:44:52;99718.97;;;20.12;78.29
80103;BME280;69865;47.648;19.030;2023-07-20T00:45:26;99730.47;;;20.20;77.78
80103;BME280;69865;47.648;19.030;2023-07-20T00:45:59;99727.16;;;20.24;77.01
80103;BME280;69865;47.648;19.030;2023-07-20T00:46:31;99729.63;;;20.32;76.33
80103;BME280;69865;47.648;19.030;2023-07-20T00:47:05;99731.44;;;20.38;76.16
80103;BME280;69865;47.648;19.030;2023-07-20T00:47:38;99716.06;;;20.34;76.33
80103;BME280;69865;47.648;19.030;2023-07-20T00:48:11;99729.59;;;20.39;76.52
80103;BME280;69865;47.648;19.030;2023-07-20T00:48:46;99733.50;;;20.43;76.15
80103;BME280;69865;47.648;19.030;2023-07-20T00:49:18;99730.81;;;20.43;75.74
80103;BME280;69865;47.648;19.030;2023-07-20T00:49:51;99734.31;;;20.43;75.42
80103;BME280;69865;47.648;19.030;2023-07-20T00:50:24;99734.13;;;20.45;75.18
80103;BME280;69865;47.648;19.030;2023-07-20T00:50:58;99730.81;;;20.43;75.50
80103;BME280;69865;47.648;19.030;2023-07-20T00:51:31;99734.94;;;20.45;75.82
80103;BME280;69865;47.648;19.030;2023-07-20T00:52:07;99735.16;;;20.44;75.16
80103;BME280;69865;47.648;19.030;2023-07-20T00:52:39;99734.75;;;20.40;75.49
80103;BME280;69865;47.648;19.030;2023-07-20T00:53:11;99737.44;;;20.40;75.62
80103;BME280;69865;47.648;19.030;2023-07-20T00:53:44;99734.75;;;20.40;75.28
80103;BME280;69865;47.648;19.030;2023-07-20T00:54:16;99735.78;;;20.39;75.88
80103;BME280;69865;47.648;19.030;2023-07-20T00:54:49;99732.09;;;20.40;75.84
80103;BME280;69865;47.648;19.030;2023-07-20T00:55:23;99734.97;;;20.39;76.48
80103;BME280;69865;47.648;19.030;2023-07-20T00:55:55;99725.72;;;20.35;76.59
80103;BME280;69865;47.648;19.030;2023-07-20T00:56:28;99730.03;;;20.36;76.07
80103;BME280;69865;47.648;19.030;2023-07-20T00:57:01;99735.38;;;20.36;75.03
80103;BME280;69865;47.648;19.030;2023-07-20T00:57:33;99728.59;;;20.40;75.71
80103;BME280;69865;47.648;19.030;2023-07-20T00:58:05;99722.84;;;20.36;76.11
80103;BME280;69865;47.648;19.030;2023-07-20T00:58:37;99722.88;;;20.30;76.21
80103;BME280;69865;47.648;19.030;2023-07-20T00:59:11;99725.53;;;20.30;75.99
80103;BME280;69865;47.648;19.030;2023-07-20T00:59:43;99727.38;;;20.29;76.27
80103;BME280;69865;47.648;19.030;2023-07-20T01:00:16;99725.91;;;20.27;76.19
80103;BME280;69865;47.648;19.030;2023-07-20T01:00:48;99722.44;;;20.26;75.78
80103;BME280;69865;47.648;19.030;2023-07-20T01:01:21;99720.56;;;20.27;75.76
80103;BME280;69865;47.648;19.030;2023-07-20T01:01:53;99718.94;;;20.26;76.31
80103;BME280;69865;47.648;19.030;2023-07-20T01:02:28;99716.47;;;20.24;76.07
80103;BME280;69865;47.648;19.030;2023-07-20T01:03:00;99715.22;;;20.27;76.10
80103;BME280;69865;47.648;19.030;2023-07-20T01:03:33;99718.31;;;20.24;76.61
80103;BME280;69865;47.648;19.030;2023-07-20T01:04:05;99724.69;;;20.23;76.44
80103;BME280;69865;47.648;19.030;2023-07-20T01:04:37;99720.16;;;20.23;76.15
80103;BME280;69865;47.648;19.030;2023-07-20T01:05:10;99717.47;;;20.23;75.92
80103;BME280;69865;47.648;19.030;2023-07-20T01:05:50;99720.78;;;20.25;75.58
80103;BME280;69865;47.648;19.030;2023-07-20T01:06:32;99721.38;;;20.27;75.47
80103;BME280;69865;47.648;19.030;2023-07-20T01:07:12;99712.75;;;20.25;75.80
80103;BME280;69865;47.648;19.030;2023-07-20T01:07:54;99715.00;;;20.28;75.67
80103;BME280;69865;47.648;19.030;2023-07-20T01:08:38;99718.13;;;20.32;75.42
80103;BME280;69865;47.648;19.030;2023-07-20T01:09:15;99723.25;;;20.33;75.50
80103;BME280;69865;47.648;19.030;2023-07-20T01:10:01;99712.16;;;20.30;76.35
80103;BME280;69865;47.648;19.030;2023-07-20T01:10:40;99721.22;;;20.29;76.13
80103;BME280;69865;47.648;19.030;2023-07-20T01:11:20;99715.00;;;20.28;76.27
80103;BME280;69865;47.648;19.030;2023-07-20T01:12:02;99714.19;;;20.28;76.63
80103;BME280;69865;47.648;19.030;2023-07-20T01:12:43;99713.34;;;20.27;76.13
80103;BME280;69865;47.648;19.030;2023-07-20T01:13:18;99709.66;;;20.28;75.83
80103;BME280;69865;47.648;19.030;2023-07-20T01:13:50;99703.72;;;20.26;76.33
80103;BME280;69865;47.648;19.030;2023-07-20T01:14:23;99707.22;;;20.20;76.79
80103;BME280;69865;47.648;19.030;2023-07-20T01:14:56;99707.84;;;20.22;76.39
80103;BME280;69865;47.648;19.030;2023-07-20T01:15:29;99710.09;;;20.32;75.83
80103;BME280;69865;47.648;19.030;2023-07-20T01:16:01;99710.06;;;20.38;74.87
80103;BME280;69865;47.648;19.030;2023-07-20T01:16:33;99712.09;;;20.43;74.99
80103;BME280;69865;47.648;19.030;2023-07-20T01:17:05;99713.31;;;20.47;74.60
80103;BME280;69865;47.648;19.030;2023-07-20T01:17:37;99710.66;;;20.47;74.44
80103;BME280;69865;47.648;19.030;2023-07-20T01:18:10;99704.28;;;20.48;74.70
80103;BME280;69865;47.648;19.030;2023-07-20T01:18:42;99708.59;;;20.42;75.70
80103;BME280;69865;47.648;19.030;2023-07-20T01:19:14;99708.44;;;20.37;75.88
80103;BME280;69865;47.648;19.030;2023-07-20T01:19:46;99706.19;;;20.34;76.01
80103;BME280;69865;47.648;19.030;2023-07-20T01:20:20;99702.84;;;20.39;75.78
80103;BME280;69865;47.648;19.030;2023-07-20T01:20:59;99708.19;;;20.45;75.07
80103;BME280;69865;47.648;19.030;2023-07-20T01:21:36;99704.06;;;20.49;75.31
80103;BME280;69865;47.648;19.030;2023-07-20T01:22:38;99701.78;;;20.53;74.55
80103;BME280;69865;47.648;19.030;2023-07-20T01:24:01;99706.28;;;20.59;74.94
80103;BME280;69865;47.648;19.030;2023-07-20T01:24:58;99705.88;;;20.55;75.12
80103;BME280;69865;47.648;19.030;2023-07-20T01:27:08;99706.06;;;20.60;75.86
80103;BME280;69865;47.648;19.030;2023-07-20T01:29:11;99705.16;;;20.22;76.56
80103;BME280;69865;47.648;19.030;2023-07-20T01:30:08;99709.69;;;20.15;76.51
80103;BME280;69865;47.648;19.030;2023-07-20T01:30:46;99709.69;;;20.15;76.70
80103;BME280;69865;47.648;19.030;2023-07-20T01:31:25;99712.38;;;20.15;76.50
80103;BME280;69865;47.648;19.030;2023-07-20T01:31:58;99711.34;;;20.16;76.54
80103;BME280;69865;47.648;19.030;2023-07-20T01:32:32;99710.50;;;20.15;76.83
80103;BME280;69865;47.648;19.030;2023-07-20T01:33:06;99711.53;;;20.14;77.05
80103;BME280;69865;47.648;19.030;2023-07-20T01:33:42;99702.09;;;20.12;77.20
80103;BME280;69865;47.648;19.030;2023-07-20T01:34:17;99720.00;;;20.11;77.03
80103;BME280;69865;47.648;19.030;2023-07-20T01:34:52;99716.50;;;20.11;77.11
80103;BME280;69865;47.648;19.030;2023-07-20T01:35:29;99727.41;;;20.09;77.52
80103;BME280;69865;47.648;19.030;2023-07-20T01:36:03;99714.25;;;20.08;77.25
80103;BME280;69865;47.648;19.030;2023-07-20T01:36:37;99717.75;;;20.08;77.20
80103;BME280;69865;47.648;19.030;2023-07-20T01:37:10;99714.88;;;20.10;77.04
80103;BME280;69865;47.648;19.030;2023-07-20T01:37:45;99718.34;;;20.10;77.04
80103;BME280;69865;47.648;19.030;2023-07-20T01:38:19;99710.31;;;20.10;76.89
80103;BME280;69865;47.648;19.030;2023-07-20T01:38:52;99709.72;;;20.08;77.65
80103;BME280;69865;47.648;19.030;2023-07-20T01:39:25;99708.69;;;20.03;78.11
80103;BME280;69865;47.648;19.030;2023-07-20T01:39:58;99708.50;;;20.04;78.38
80103;BME280;69865;47.648;19.030;2023-07-20T01:40:31;99706.44;;;20.00;78.96
80103;BME280;69865;47.648;19.030;2023-07-20T01:41:03;99702.94;;;19.99;79.09
80103;BME280;69865;47.648;19.030;2023-07-20T01:41:36;99701.53;;;19.97;79.15
80103;BME280;69865;47.648;19.030;2023-07-20T01:42:08;99699.88;;;19.96;78.69
80103;BME280;69865;47.648;19.030;2023-07-20T01:42:44;99698.22;;;19.95;78.80
80103;BME280;69865;47.648;19.030;2023-07-20T01:43:16;99702.97;;;19.93;78.93
80103;BME280;69865;47.648;19.030;2023-07-20T01:43:48;99707.28;;;19.94;79.06
80103;BME280;69865;47.648;19.030;2023-07-20T01:44:20;99706.25;;;19.95;78.36
80103;BME280;69865;47.648;19.030;2023-07-20T01:44:53;99698.66;;;19.98;78.19
80103;BME280;69865;47.648;19.030;2023-07-20T01:45:25;99704.78;;;19.99;77.64
80103;BME280;69865;47.648;19.030;2023-07-20T01:45:57;99698.22;;;20.01;77.92
80103;BME280;69865;47.648;19.030;2023-07-20T01:46:31;99700.66;;;20.03;77.77
80103;BME280;69865;47.648;19.030;2023-07-20T01:47:03;99705.22;;;20.02;77.75
80103;BME280;69865;47.648;19.030;2023-07-20T01:47:35;99708.50;;;20.04;77.50
80103;BME280;69865;47.648;19.030;2023-07-20T01:48:08;99703.16;;;20.04;77.33
80103;BME280;69865;47.648;19.030;2023-07-20T01:48:40;99700.47;;;20.04;77.62
80103;BME280;69865;47.648;19.030;2023-07-20T01:49:12;99707.25;;;20.07;77.00
80103;BME280;69865;47.648;19.030;2023-07-20T01:49:44;99705.41;;;20.07;77.05
80103;BME280;69865;47.648;19.030;2023-07-20T01:50:16;99709.53;;;20.10;76.74
80103;BME280;69865;47.648;19.030;2023-07-20T01:50:48;99711.13;;;20.11;76.55
80103;BME280;69865;47.648;19.030;2023-07-20T01:51:20;99714.63;;;20.11;76.21
80103;BME280;69865;47.648;19.030;2023-07-20T01:51:53;99717.72;;;20.15;76.36
80103;BME280;69865;47.648;19.030;2023-07-20T01:52:25;99716.69;;;20.16;75.85
80103;BME280;69865;47.648;19.030;2023-07-20T01:52:57;99722.44;;;20.20;75.76
80103;BME280;69865;47.648;19.030;2023-07-20T01:53:29;99714.41;;;20.20;75.33
80103;BME280;69865;47.648;19.030;2023-07-20T01:54:01;99719.34;;;20.23;75.16
80103;BME280;69865;47.648;19.030;2023-07-20T01:54:33;99719.13;;;20.24;75.13
80103;BME280;69865;47.648;19.030;2023-07-20T01:55:06;99718.53;;;20.22;75.33
80103;BME280;69865;47.648;19.030;2023-07-20T01:55:38;99726.34;;;20.24;75.40
80103;BME280;69865;47.648;19.030;2023-07-20T01:56:11;99720.16;;;20.23;74.98
80103;BME280;69865;47.648;19.030;2023-07-20T01:56:43;99715.88;;;20.22;74.99
80103;BME280;69865;47.648;19.030;2023-07-20T01:57:15;99713.19;;;20.22;74.92
80103;BME280;69865;47.648;19.030;2023-07-20T01:57:47;99716.66;;;20.23;74.75
80103;BME280;69865;47.648;19.030;2023-07-20T01:58:19;99716.88;;;20.21;74.85
80103;BME280;69865;47.648;19.030;2023-07-20T01:58:51;99708.63;;;20.23;74.63
80103;BME280;69865;47.648;19.030;2023-07-20T01:59:23;99713.19;;;20.22;75.28
80103;BME280;69865;47.648;19.030;2023-07-20T01:59:55;99710.91;;;20.19;75.35
80103;BME280;69865;47.648;19.030;2023-07-20T02:00:27;99716.25;;;20.19;75.09
80103;BME280;69865;47.648;19.030;2023-07-20T02:01:00;99710.72;;;20.21;74.93
80103;BME280;69865;47.648;19.030;2023-07-20T02:01:34;99707.41;;;20.18;74.95
80103;BME280;69865;47.648;19.030;2023-07-20T02:02:06;99712.16;;;20.16;75.00
80103;BME280;69865;47.648;19.030;2023-07-20T02:02:38;99710.31;;;20.17;74.71
80103;BME280;69865;47.648;19.030;2023-07-20T02:03:10;99703.72;;;20.20;75.02
80103;BME280;69865;47.648;19.030;2023-07-20T02:03:42;99712.16;;;20.16;75.21
80103;BME280;69865;47.648;19.030;2023-07-20T02:04:15;99714.22;;;20.14;75.12
80103;BME280;69865;47.648;19.030;2023-07-20T02:04:47;99714.63;;;20.18;75.13
80103;BME280;69865;47.648;19.030;2023-07-20T02:05:20;99720.59;;;20.20;75.01
80103;BME280;69865;47.648;19.030;2023-07-20T02:05:52;99722.00;;;20.23;75.16
80103;BME280;69865;47.648;19.030;2023-07-20T02:06:24;99723.47;;;20.18;76.29
80103;BME280;69865;47.648;19.030;2023-07-20T02:06:56;99726.97;;;20.19;76.32
80103;BME280;69865;47.648;19.030;2023-07-20T02:07:29;99734.38;;;20.17;76.60
80103;BME280;69865;47.648;19.030;2023-07-20T02:08:01;99732.72;;;20.16;76.87
80103;BME280;69865;47.648;19.030;2023-07-20T02:08:33;99734.81;;;20.07;78.08
80103;BME280;69865;47.648;19.030;2023-07-20T02:09:05;99740.38;;;19.93;78.25
80103;BME280;69865;47.648;19.030;2023-07-20T02:09:37;99741.41;;;19.92;78.53
80103;BME280;69865;47.648;19.030;2023-07-20T02:10:09;99746.75;;;19.92;78.85
80103;BME280;69865;47.648;19.030;2023-07-20T02:10:41;99752.31;;;19.90;79.19
80103;BME280;69865;47.648;19.030;2023-07-20T02:11:13;99749.84;;;19.89;78.67
80103;BME280;69865;47.648;19.030;2023-07-20T02:11:45;99749.22;;;19.87;78.21
80103;BME280;69865;47.648;19.030;2023-07-20T02:12:18;99743.28;;;19.85;78.78
80103;BME280;69865;47.648;19.030;2023-07-20T02:12:50;99746.97;;;19.84;79.41
80103;BME280;69865;47.648;19.030;2023-07-20T02:13:22;99752.53;;;19.82;79.00
80103;BME280;69865;47.648;19.030;2023-07-20T02:13:54;99749.66;;;19.77;79.57
80103;BME280;69865;47.648;19.030;2023-07-20T02:14:26;99749.25;;;19.74;79.45
80103;BME280;69865;47.648;19.030;2023-07-20T02:14:58;99752.94;;;19.73;79.73
80103;BME280;69865;47.648;19.030;2023-07-20T02:15:30;99752.53;;;19.69;79.58
80103;BME280;69865;47.648;19.030;2023-07-20T02:16:02;99757.06;;;19.68;79.87
80103;BME280;69865;47.648;19.030;2023-07-20T02:16:36;99758.31;;;19.66;79.72
80103;BME280;69865;47.648;19.030;2023-07-20T02:17:08;99749.88;;;19.62;79.75
80103;BME280;69865;47.648;19.030;2023-07-20T02:17:40;99765.28;;;19.60;79.93
80103;BME280;69865;47.648;19.030;2023-07-20T02:18:12;99762.38;;;19.55;80.27
80103;BME280;69865;47.648;19.030;2023-07-20T02:18:44;99764.03;;;19.56;80.42
80103;BME280;69865;47.648;19.030;2023-07-20T02:19:17;99762.81;;;19.52;80.69
80103;BME280;69865;47.648;19.030;2023-07-20T02:19:52;99765.47;;;19.52;80.66
80103;BME280;69865;47.648;19.030;2023-07-20T02:20:24;99762.81;;;19.52;80.76
80103;BME280;69865;47.648;19.030;2023-07-20T02:20:56;99764.88;;;19.50;80.82
80103;BME280;69865;47.648;19.030;2023-07-20T02:21:28;99765.88;;;19.49;81.52
80103;BME280;69865;47.648;19.030;2023-07-20T02:22:01;99769.56;;;19.48;81.28
80103;BME280;69865;47.648;19.030;2023-07-20T02:22:33;99762.13;;;19.37;81.51
80103;BME280;69865;47.648;19.030;2023-07-20T02:23:05;99766.66;;;19.30;81.71
80103;BME280;69865;47.648;19.030;2023-07-20T02:23:37;99770.16;;;19.31;81.48
80103;BME280;69865;47.648;19.030;2023-07-20T02:24:09;99771.38;;;19.28;81.87
80103;BME280;69865;47.648;19.030;2023-07-20T02:24:41;99767.69;;;19.29;81.65
80103;BME280;69865;47.648;19.030;2023-07-20T02:25:13;99767.69;;;19.29;81.81
80103;BME280;69865;47.648;19.030;2023-07-20T02:25:45;99767.69;;;19.29;81.59
80103;BME280;69865;47.648;19.030;2023-07-20T02:26:17;99770.16;;;19.31;81.29
80103;BME280;69865;47.648;19.030;2023-07-20T02:26:49;99769.94;;;19.32;81.34
80103;BME280;69865;47.648;19.030;2023-07-20T02:27:21;99746.69;;;19.19;81.67
80103;BME280;69865;47.648;19.030;2023-07-20T02:27:53;99772.19;;;19.29;82.06
80103;BME280;69865;47.648;19.030;2023-07-20T02:28:25;99773.63;;;19.24;82.28
80103;BME280;69865;47.648;19.030;2023-07-20T02:28:57;99772.38;;;19.20;82.31
80103;BME280;69865;47.648;19.030;2023-07-20T02:29:29;99771.38;;;19.21;82.28
80103;BME280;69865;47.648;19.030;2023-07-20T02:30:03;99767.03;;;19.20;82.11
80103;BME280;69865;47.648;19.030;2023-07-20T02:30:37;99771.56;;;19.20;81.88
80103;BME280;69865;47.648;19.030;2023-07-20T02:31:10;99772.38;;;19.20;81.86
80103;BME280;69865;47.648;19.030;2023-07-20T02:31:43;99780.38;;;19.20;81.99
80103;BME280;69865;47.648;19.030;2023-07-20T02:32:15;99779.38;;;19.21;82.08
80103;BME280;69865;47.648;19.030;2023-07-20T02:32:47;99775.22;;;19.19;81.93
80103;BME280;69865;47.648;19.030;2023-07-20T02:33:20;99783.47;;;19.17;81.83
80103;BME280;69865;47.648;19.030;2023-07-20T02:33:52;99784.28;;;19.18;81.62
80103;BME280;69865;47.648;19.030;2023-07-20T02:34:24;99778.97;;;19.18;81.59
80103;BME280;69865;47.648;19.030;2023-07-20T02:34:56;99774.44;;;19.18;81.42
80103;BME280;69865;47.648;19.030;2023-07-20T02:35:29;99782.03;;;19.21;81.72
80103;BME280;69865;47.648;19.030;2023-07-20T02:36:01;99785.53;;;19.22;81.65
80103;BME280;69865;47.648;19.030;2023-07-20T02:36:33;99788.00;;;19.23;81.82
80103;BME280;69865;47.648;19.030;2023-07-20T02:37:06;99788.59;;;19.19;82.18
80103;BME280;69865;47.648;19.030;2023-07-20T02:37:40;99786.53;;;19.14;82.83
80103;BME280;69865;47.648;19.030;2023-07-20T02:38:12;99790.41;;;19.05;83.40
80103;BME280;69865;47.648;19.030;2023-07-20T02:38:44;99779.50;;;19.00;83.38
80103;BME280;69865;47.648;19.030;2023-07-20T02:39:17;99787.28;;;18.95;83.33
80103;BME280;69865;47.648;19.030;2023-07-20T02:39:49;99784.84;;;19.00;82.79
80103;BME280;69865;47.648;19.030;2023-07-20T02:40:21;99785.06;;;19.05;82.39
80103;BME280;69865;47.648;19.030;2023-07-20T02:40:53;99784.06;;;19.13;81.97
80103;BME280;69865;47.648;19.030;2023-07-20T02:41:25;99784.06;;;19.19;81.29
80103;BME280;69865;47.648;19.030;2023-07-20T02:41:57;99777.53;;;19.22;81.68
80103;BME280;69865;47.648;19.030;2023-07-20T02:42:29;99783.69;;;19.22;81.49
80103;BME280;69865;47.648;19.030;2023-07-20T02:43:02;99780.81;;;19.17;81.60
80103;BME280;69865;47.648;19.030;2023-07-20T02:43:34;99777.91;;;19.19;81.29
80103;BME280;69865;47.648;19.030;2023-07-20T02:44:06;99783.69;;;19.22;80.18
80103;BME280;69865;47.648;19.030;2023-07-20T02:44:38;99775.06;;;19.27;80.19
80103;BME280;69865;47.648;19.030;2023-07-20T02:45:10;99780.00;;;19.30;79.93
80103;BME280;69865;47.648;19.030;2023-07-20T02:45:42;99778.97;;;19.31;79.85
80103;BME280;69865;47.648;19.030;2023-07-20T02:46:15;99769.94;;;19.32;79.98
80103;BME280;69865;47.648;19.030;2023-07-20T02:46:48;99777.34;;;19.37;79.37
80103;BME280;69865;47.648;19.030;2023-07-20T02:47:20;99775.31;;;19.39;79.93
80103;BME280;69865;47.648;19.030;2023-07-20T02:47:52;99777.75;;;19.40;79.16
80103;BME280;69865;47.648;19.030;2023-07-20T02:48:25;99778.19;;;19.44;78.92
80103;BME280;69865;47.648;19.030;2023-07-20T02:48:57;99772.44;;;19.47;78.74
80103;BME280;69865;47.648;19.030;2023-07-20T02:49:29;99766.91;;;19.48;78.91
80103;BME280;69865;47.648;19.030;2023-07-20T02:50:01;99773.06;;;19.49;78.69
80103;BME280;69865;47.648;19.030;2023-07-20T02:50:33;99770.41;;;19.49;79.21
80103;BME280;69865;47.648;19.030;2023-07-20T02:51:05;99775.75;;;19.49;79.40
80103;BME280;69865;47.648;19.030;2023-07-20T02:51:37;99768.97;;;19.46;79.74
80103;BME280;69865;47.648;19.030;2023-07-20T02:52:09;99772.84;;;19.44;80.43
80103;BME280;69865;47.648;19.030;2023-07-20T02:52:41;99765.84;;;19.43;79.97
80103;BME280;69865;47.648;19.030;2023-07-20T02:53:14;99772.84;;;19.44;79.87
80103;BME280;69865;47.648;19.030;2023-07-20T02:53:46;99775.75;;;19.42;80.09
80103;BME280;69865;47.648;19.030;2023-07-20T02:54:18;99772.22;;;19.42;80.26
80103;BME280;69865;47.648;19.030;2023-07-20T02:54:50;99779.81;;;19.38;80.11
80103;BME280;69865;47.648;19.030;2023-07-20T02:55:22;99777.16;;;19.38;80.22
80103;BME280;69865;47.648;19.030;2023-07-20T02:55:54;99774.66;;;19.37;79.97
80103;BME280;69865;47.648;19.030;2023-07-20T02:56:26;99773.84;;;19.36;80.12
80103;BME280;69865;47.648;19.030;2023-07-20T02:56:58;99772.81;;;19.37;80.21